^^
Your Local Weather - Clay, NY Station Historical Data
Daily Summary for June 12, 2017 Units:  English    Metric   Both
« Previous Day
Next Day »
Daily Weekly Monthly Yearly Custom
  High: Low: Average:
Temperature: 89.9 °F 63.8 °F 77.3 °F
Dew Point: 67.9 °F 59.2 °F 62.5 °F
Humidity: 86% 38% 63%
Wind Speed: 5.0mph 0.0mph 1.2mph
Wind Gust: 12.0mph - -
Wind- - West
Pressure: 29.95 in 29.86 in -
Precipitation: 0.00 in    
Historical Graphs
 
 
Tabular Data for June 12, 2017
Time Temperature Dew Point Pressure Wind Wind Speed Wind Gust Humidity Rainfall Rate (Hourly) solar
00:02 72.9 °F 59.6 °F 29.92 in Calm     63% 0.00 in 0 W/m2
00:08 71.7 °F 59.3 °F 29.92 in Calm     65% 0.00 in 0 W/m2
00:14 70.9 °F 59.4 °F 29.92 in Calm     67% 0.00 in 0 W/m2
00:20 70.3 °F 59.6 °F 29.92 in Calm     69% 0.00 in 0 W/m2
00:26 70.0 °F 59.4 °F 29.92 in Calm     69% 0.00 in 0 W/m2
00:32 69.6 °F 59.4 °F 29.92 in Calm     70% 0.00 in 0 W/m2
00:38 69.0 °F 59.2 °F 29.92 in Calm     71% 0.00 in 0 W/m2
00:44 68.7 °F 60.1 °F 29.92 in Calm     74% 0.00 in 0 W/m2
00:50 68.4 °F 59.8 °F 29.91 in Calm     74% 0.00 in 0 W/m2
00:56 68.2 °F 59.6 °F 29.92 in Calm     74% 0.00 in 0 W/m2
01:02 68.2 °F 60.0 °F 29.91 in Calm     75% 0.00 in 0 W/m2
01:08 68.3 °F 60.4 °F 29.91 in Calm     76% 0.00 in 0 W/m2
01:14 68.5 °F 60.3 °F 29.91 in Calm     75% 0.00 in 0 W/m2
01:22 68.8 °F 60.6 °F 29.91 in Calm     75% 0.00 in 0 W/m2
01:28 69.0 °F 61.5 °F 29.91 in Calm     77% 0.00 in 0 W/m2
01:34 69.0 °F 61.1 °F 29.91 in Calm     76% 0.00 in 0 W/m2
01:40 69.0 °F 61.1 °F 29.91 in Calm     76% 0.00 in 0 W/m2
01:46 69.1 °F 60.8 °F 29.91 in Calm   2.0 mph 75% 0.00 in 0 W/m2
01:52 69.4 °F 60.8 °F 29.90 in WSW 1.0 mph 2.0 mph 74% 0.00 in 0 W/m2
01:58 69.2 °F 60.2 °F 29.91 in WSW 1.0 mph 2.0 mph 73% 0.00 in 0 W/m2
02:04 69.2 °F 60.6 °F 29.91 in Calm   1.0 mph 74% 0.00 in 0 W/m2
02:10 68.8 °F 60.2 °F 29.91 in Calm     74% 0.00 in 0 W/m2
02:16 68.6 °F 60.4 °F 29.92 in Calm     75% 0.00 in 0 W/m2
02:22 68.2 °F 60.7 °F 29.92 in Calm     77% 0.00 in 0 W/m2
02:28 67.6 °F 60.5 °F 29.92 in Calm     78% 0.00 in 0 W/m2
02:34 67.4 °F 60.3 °F 29.92 in Calm     78% 0.00 in 0 W/m2
02:40 67.1 °F 60.4 °F 29.92 in Calm     79% 0.00 in 0 W/m2
02:46 66.9 °F 60.2 °F 29.92 in Calm     79% 0.00 in 0 W/m2
02:52 66.8 °F 60.4 °F 29.93 in Calm     80% 0.00 in 0 W/m2
02:58 66.5 °F 60.1 °F 29.93 in Calm     80% 0.00 in 0 W/m2
03:04 66.4 °F 60.0 °F 29.93 in Calm     80% 0.00 in 0 W/m2
03:10 66.2 °F 59.8 °F 29.93 in Calm     80% 0.00 in 0 W/m2
03:16 66.0 °F 60.0 °F 29.93 in Calm     81% 0.00 in 0 W/m2
03:22 65.9 °F 59.9 °F 29.93 in Calm     81% 0.00 in 0 W/m2
03:28 65.6 °F 60.0 °F 29.93 in Calm     82% 0.00 in 0 W/m2
03:34 65.5 °F 59.9 °F 29.93 in Calm     82% 0.00 in 0 W/m2
03:40 65.4 °F 59.8 °F 29.93 in Calm     82% 0.00 in 0 W/m2
03:46 65.5 °F 60.2 °F 29.93 in Calm     83% 0.00 in 0 W/m2
03:52 65.4 °F 60.1 °F 29.94 in Calm     83% 0.00 in 0 W/m2
03:58 65.3 °F 60.0 °F 29.94 in Calm     83% 0.00 in 0 W/m2
04:04 65.1 °F 60.1 °F 29.94 in Calm     84% 0.00 in 0 W/m2
04:10 65.0 °F 60.0 °F 29.93 in Calm     84% 0.00 in 0 W/m2
04:16 64.8 °F 59.9 °F 29.94 in Calm     84% 0.00 in 0 W/m2
04:22 64.6 °F 59.7 °F 29.94 in Calm     84% 0.00 in 0 W/m2
04:28 64.5 °F 59.9 °F 29.94 in Calm     85% 0.00 in 0 W/m2
04:34 64.5 °F 59.9 °F 29.94 in Calm     85% 0.00 in 0 W/m2
04:40 64.5 °F 59.9 °F 29.94 in Calm     85% 0.00 in 0 W/m2
04:46 64.5 °F 59.9 °F 29.94 in Calm     85% 0.00 in 0 W/m2
04:52 64.3 °F 59.7 °F 29.94 in Calm     85% 0.00 in 0 W/m2
04:58 64.3 °F 59.7 °F 29.94 in Calm     85% 0.00 in 0 W/m2
05:04 64.2 °F 59.9 °F 29.94 in Calm     86% 0.00 in 0 W/m2
05:10 64.1 °F 59.5 °F 29.94 in Calm     85% 0.00 in 0 W/m2
05:16 64.0 °F 59.4 °F 29.94 in Calm     85% 0.00 in 0 W/m2
05:22 63.8 °F 59.2 °F 29.94 in Calm     85% 0.00 in 0 W/m2
05:28 63.9 °F 59.6 °F 29.93 in Calm     86% 0.00 in 0 W/m2
05:34 64.1 °F 59.5 °F 29.93 in Calm     85% 0.00 in 5 W/m2
05:40 64.3 °F 60.0 °F 29.93 in Calm     86% 0.00 in 9 W/m2
05:46 64.3 °F 60.0 °F 29.93 in Calm     86% 0.00 in 12 W/m2
05:52 64.2 °F 59.6 °F 29.93 in Calm     85% 0.00 in 16 W/m2
05:58 64.2 °F 59.6 °F 29.93 in Calm   1.0 mph 85% 0.00 in 21 W/m2
06:08 64.4 °F 60.1 °F 29.94 in WSW 1.0 mph 1.0 mph 86% 0.00 in 26 W/m2
06:14 64.6 °F 60.0 °F 29.93 in Calm   1.0 mph 85% 0.00 in 30 W/m2
06:20 64.8 °F 60.2 °F 29.94 in Calm     85% 0.00 in 47 W/m2
06:26 65.0 °F 60.7 °F 29.94 in Calm     86% 0.00 in 98 W/m2
06:32 65.6 °F 61.0 °F 29.93 in Calm     85% 0.00 in 113 W/m2
06:38 66.3 °F 61.3 °F 29.94 in Calm     84% 0.00 in 132 W/m2
06:44 67.1 °F 61.8 °F 29.94 in Calm     83% 0.00 in 148 W/m2
06:50 68.1 °F 62.0 °F 29.94 in Calm     81% 0.00 in 163 W/m2
06:56 69.6 °F 62.1 °F 29.94 in Calm     77% 0.00 in 179 W/m2
07:02 71.3 °F 61.8 °F 29.94 in Calm   3.0 mph 72% 0.00 in 195 W/m2
07:08 72.6 °F 62.3 °F 29.94 in Calm   3.0 mph 70% 0.00 in 211 W/m2
07:14 73.7 °F 62.5 °F 29.94 in Calm     68% 0.00 in 227 W/m2
07:20 74.5 °F 62.4 °F 29.94 in SW 1.0 mph 2.0 mph 66% 0.00 in 246 W/m2
07:26 75.1 °F 62.1 °F 29.94 in South 1.0 mph 5.0 mph 64% 0.00 in 260 W/m2
07:32 75.8 °F 61.8 °F 29.94 in WSW 1.0 mph 1.0 mph 62% 0.00 in 278 W/m2
07:38 76.3 °F 62.8 °F 29.95 in WSW 1.0 mph 4.0 mph 63% 0.00 in 295 W/m2
07:44 76.6 °F 62.1 °F 29.95 in SW 2.0 mph 6.0 mph 61% 0.00 in 313 W/m2
07:50 76.9 °F 62.4 °F 29.95 in SW 2.0 mph 2.0 mph 61% 0.00 in 332 W/m2
07:56 77.3 °F 62.8 °F 29.95 in WSW 2.0 mph 4.0 mph 61% 0.00 in 345 W/m2
08:02 77.8 °F 62.8 °F 29.95 in SW 1.0 mph 2.0 mph 60% 0.00 in 364 W/m2
08:08 78.2 °F 62.2 °F 29.95 in SW 1.0 mph 5.0 mph 58% 0.00 in 380 W/m2
08:14 78.5 °F 63.5 °F 29.95 in WSW 2.0 mph 3.0 mph 60% 0.00 in 394 W/m2
08:20 78.7 °F 63.2 °F 29.95 in WSW 2.0 mph 3.0 mph 59% 0.00 in 413 W/m2
08:26 79.0 °F 63.0 °F 29.95 in NNW 3.0 mph 4.0 mph 58% 0.00 in 429 W/m2
08:32 79.4 °F 63.3 °F 29.95 in West 2.0 mph 4.0 mph 58% 0.00 in 450 W/m2
08:38 79.5 °F 62.4 °F 29.95 in NNW 3.0 mph 7.0 mph 56% 0.00 in 469 W/m2
08:44 79.7 °F 63.1 °F 29.94 in SW 3.0 mph 3.0 mph 57% 0.00 in 483 W/m2
08:50 80.0 °F 63.9 °F 29.95 in West 2.0 mph 3.0 mph 58% 0.00 in 501 W/m2
08:56 80.2 °F 63.6 °F 29.94 in NW 1.0 mph 3.0 mph 57% 0.00 in 517 W/m2
09:02 80.6 °F 64.5 °F 29.94 in West 1.0 mph 1.0 mph 58% 0.00 in 538 W/m2
09:08 80.9 °F 63.2 °F 29.94 in NNW 2.0 mph 7.0 mph 55% 0.00 in 563 W/m2
09:14 81.0 °F 63.8 °F 29.94 in WSW 2.0 mph 4.0 mph 56% 0.00 in 594 W/m2
09:20 81.3 °F 63.6 °F 29.94 in WSW 2.0 mph 4.0 mph 55% 0.00 in 628 W/m2
09:26 81.3 °F 64.1 °F 29.93 in WNW 2.0 mph 4.0 mph 56% 0.00 in 566 W/m2
09:32 81.6 °F 63.9 °F 29.93 in SW 1.0 mph 2.0 mph 55% 0.00 in 571 W/m2
09:38 81.7 °F 65.0 °F 29.93 in West 2.0 mph 2.0 mph 57% 0.00 in 594 W/m2
09:44 81.8 °F 63.5 °F 29.93 in WSW 2.0 mph 2.0 mph 54% 0.00 in 659 W/m2
09:50 82.2 °F 64.4 °F 29.93 in WNW 2.0 mph 2.0 mph 55% 0.00 in 657 W/m2
09:56 82.7 °F 65.4 °F 29.93 in WNW 1.0 mph 2.0 mph 56% 0.00 in 705 W/m2
10:02 82.8 °F 64.5 °F 29.93 in North 1.0 mph 1.0 mph 54% 0.00 in 728 W/m2
10:08 83.0 °F 64.1 °F 29.93 in SSW 1.0 mph 2.0 mph 53% 0.00 in 726 W/m2
10:14 83.1 °F 63.1 °F 29.93 in SW 1.0 mph 2.0 mph 51% 0.00 in 747 W/m2
10:20 82.9 °F 64.0 °F 29.92 in WSW 2.0 mph 2.0 mph 53% 0.00 in 763 W/m2
10:26 83.2 °F 66.9 °F 29.92 in SW 2.0 mph 6.0 mph 58% 0.00 in 779 W/m2
10:32 84.1 °F 66.7 °F 29.92 in SW 1.0 mph 4.0 mph 56% 0.00 in 779 W/m2
10:38 83.3 °F 63.3 °F 29.92 in SW 3.0 mph 5.0 mph 51% 0.00 in 800 W/m2
10:44 83.5 °F 65.1 °F 29.91 in WSW 3.0 mph 6.0 mph 54% 0.00 in 798 W/m2
10:50 84.1 °F 64.0 °F 29.91 in West 2.0 mph 6.0 mph 51% 0.00 in 824 W/m2
10:56 84.2 °F 63.5 °F 29.92 in WSW 2.0 mph 5.0 mph 50% 0.00 in 826 W/m2
11:02 84.1 °F 64.6 °F 29.92 in WSW 3.0 mph 5.0 mph 52% 0.00 in 835 W/m2
11:08 84.5 °F 64.4 °F 29.92 in WSW 3.0 mph 7.0 mph 51% 0.00 in 846 W/m2
11:14 84.5 °F 63.2 °F 29.92 in WSW 3.0 mph 3.0 mph 49% 0.00 in 856 W/m2
11:20 84.9 °F 64.2 °F 29.92 in SW 4.0 mph 7.0 mph 50% 0.00 in 858 W/m2
11:26 85.6 °F 65.4 °F 29.92 in SW 3.0 mph 7.0 mph 51% 0.00 in 865 W/m2
11:32 85.5 °F 64.7 °F 29.92 in SW 3.0 mph 4.0 mph 50% 0.00 in 882 W/m2
11:38 86.1 °F 64.1 °F 29.92 in WSW 2.0 mph 4.0 mph 48% 0.00 in 888 W/m2
11:44 86.2 °F 64.8 °F 29.92 in South 2.0 mph 6.0 mph 49% 0.00 in 893 W/m2
11:50 86.0 °F 65.2 °F 29.92 in WSW 2.0 mph 2.0 mph 50% 0.00 in 902 W/m2
11:56 86.5 °F 67.9 °F 29.93 in SW 2.0 mph 3.0 mph 54% 0.00 in 907 W/m2
12:02 85.7 °F 65.5 °F 29.92 in SW 4.0 mph 5.0 mph 51% 0.00 in 902 W/m2
12:08 86.2 °F 65.4 °F 29.92 in SW 4.0 mph 5.0 mph 50% 0.00 in 898 W/m2
12:14 86.2 °F 66.5 °F 29.92 in NW 4.0 mph 4.0 mph 52% 0.00 in 911 W/m2
12:20 87.2 °F 66.3 °F 29.92 in SW 2.0 mph 2.0 mph 50% 0.00 in 923 W/m2
12:26 87.0 °F 66.7 °F 29.92 in WSW 1.0 mph 4.0 mph 51% 0.00 in 926 W/m2
12:32 86.8 °F 64.8 °F 29.91 in WSW 3.0 mph 4.0 mph 48% 0.00 in 937 W/m2
12:38 86.9 °F 64.2 °F 29.91 in NW 3.0 mph 5.0 mph 47% 0.00 in 937 W/m2
12:44 87.2 °F 66.3 °F 29.91 in ENE 2.0 mph 4.0 mph 50% 0.00 in 940 W/m2
12:50 87.0 °F 63.7 °F 29.90 in West 3.0 mph 5.0 mph 46% 0.00 in 947 W/m2
12:56 87.2 °F 65.1 °F 29.90 in WSW 4.0 mph 5.0 mph 48% 0.00 in 983 W/m2
13:02 87.5 °F 64.8 °F 29.90 in NW 3.0 mph 3.0 mph 47% 0.00 in 1018 W/m2
13:08 87.7 °F 65.0 °F 29.90 in SW 3.0 mph 12.0 mph 47% 0.00 in 1005 W/m2
13:14 88.2 °F 64.2 °F 29.90 in WSW 3.0 mph 4.0 mph 45% 0.00 in 1039 W/m2
13:20 88.0 °F 64.0 °F 29.89 in West 2.0 mph 4.0 mph 45% 0.00 in 1016 W/m2
13:26 87.8 °F 65.1 °F 29.89 in SW 4.0 mph 6.0 mph 47% 0.00 in 969 W/m2
13:32 88.1 °F 65.3 °F 29.89 in WSW 4.0 mph 5.0 mph 47% 0.00 in 972 W/m2
13:38 88.6 °F 64.5 °F 29.89 in SSW 3.0 mph 5.0 mph 45% 0.00 in 1023 W/m2
13:44 88.7 °F 62.7 °F 29.89 in SSE 3.0 mph 4.0 mph 42% 0.00 in 940 W/m2
13:50 89.1 °F 64.3 °F 29.89 in WSW 3.0 mph 3.0 mph 44% 0.00 in 954 W/m2
13:56 88.8 °F 65.4 °F 29.88 in WSW 3.0 mph 6.0 mph 46% 0.00 in 947 W/m2
14:02 88.8 °F 64.7 °F 29.88 in SW 3.0 mph 3.0 mph 45% 0.00 in 967 W/m2
14:08 89.1 °F 63.7 °F 29.89 in SSW 3.0 mph 5.0 mph 43% 0.00 in 1039 W/m2
14:14 88.9 °F 62.8 °F 29.88 in SW 3.0 mph 4.0 mph 42% 0.00 in 1039 W/m2
14:20 88.8 °F 62.7 °F 29.88 in WSW 2.0 mph 2.0 mph 42% 0.00 in 967 W/m2
14:26 88.4 °F 63.1 °F 29.88 in SW 3.0 mph 4.0 mph 43% 0.00 in 302 W/m2
14:32 89.2 °F 61.7 °F 29.87 in WNW 3.0 mph 3.0 mph 40% 0.00 in 923 W/m2
14:38 88.9 °F 61.5 °F 29.87 in SSW 3.0 mph 7.0 mph 40% 0.00 in 905 W/m2
14:44 89.0 °F 62.2 °F 29.87 in WSW 3.0 mph 4.0 mph 41% 0.00 in 909 W/m2
14:48 89.2 °F 62.4 °F 29.87 in West 3.0 mph 4.0 mph 41% 0.00 in 902 W/m2
14:54 89.1 °F 60.2 °F 29.87 in WNW 3.0 mph 4.0 mph 38% 0.00 in 889 W/m2
15:00 89.2 °F 66.3 °F 29.87 in West 3.0 mph 3.0 mph 47% 0.00 in 942 W/m2
15:06 89.6 °F 62.1 °F 29.87 in SW 3.0 mph 7.0 mph 40% 0.00 in 909 W/m2
15:12 89.0 °F 62.9 °F 29.87 in SW 5.0 mph 5.0 mph 42% 0.00 in 306 W/m2
15:18 89.3 °F 60.4 °F 29.87 in WNW 3.0 mph 5.0 mph 38% 0.00 in 898 W/m2
15:24 89.0 °F 61.5 °F 29.87 in SW 3.0 mph 3.0 mph 40% 0.00 in 244 W/m2
15:30 88.9 °F 61.5 °F 29.87 in SW 2.0 mph 6.0 mph 40% 0.00 in 886 W/m2
15:36 88.7 °F 62.0 °F 29.87 in WSW 3.0 mph 6.0 mph 41% 0.00 in 853 W/m2
15:42 89.4 °F 61.9 °F 29.87 in SW 3.0 mph 4.0 mph 40% 0.00 in 821 W/m2
15:48 89.2 °F 61.7 °F 29.87 in SW 3.0 mph 6.0 mph 40% 0.00 in 826 W/m2
15:54 89.6 °F 63.5 °F 29.86 in SW 2.0 mph 4.0 mph 42% 0.00 in 807 W/m2
16:00 89.9 °F 60.9 °F 29.86 in West 2.0 mph 2.0 mph 38% 0.00 in 802 W/m2
16:06 89.8 °F 61.5 °F 29.86 in SW 2.0 mph 8.0 mph 39% 0.00 in 807 W/m2
16:12 88.8 °F 64.1 °F 29.86 in NNW 4.0 mph 7.0 mph 44% 0.00 in 770 W/m2
16:18 87.7 °F 65.6 °F 29.86 in WNW 4.0 mph 7.0 mph 48% 0.00 in 330 W/m2
16:24 86.8 °F 62.9 °F 29.87 in NW 3.0 mph 4.0 mph 45% 0.00 in 257 W/m2
16:30 86.3 °F 63.1 °F 29.87 in NW 2.0 mph 3.0 mph 46% 0.00 in 343 W/m2
16:36 86.5 °F 65.1 °F 29.87 in NNW 2.0 mph 3.0 mph 49% 0.00 in 193 W/m2
16:42 86.7 °F 62.8 °F 29.87 in NNW 2.0 mph 6.0 mph 45% 0.00 in 134 W/m2
16:48 86.2 °F 65.9 °F 29.87 in NW 3.0 mph 6.0 mph 51% 0.00 in 123 W/m2
16:54 86.1 °F 64.1 °F 29.87 in NW 3.0 mph 3.0 mph 48% 0.00 in 211 W/m2
17:00 85.8 °F 62.6 °F 29.87 in WNW 3.0 mph 3.0 mph 46% 0.00 in 135 W/m2
17:06 85.8 °F 63.2 °F 29.87 in WNW 3.0 mph 3.0 mph 47% 0.00 in 111 W/m2
17:12 85.7 °F 63.1 °F 29.87 in NW 2.0 mph 4.0 mph 47% 0.00 in 104 W/m2
17:18 85.5 °F 61.7 °F 29.87 in NW 3.0 mph 4.0 mph 45% 0.00 in 104 W/m2
17:24 85.3 °F 62.8 °F 29.87 in NW 3.0 mph 4.0 mph 47% 0.00 in 97 W/m2
17:30 85.3 °F 63.4 °F 29.87 in NW 2.0 mph 2.0 mph 48% 0.00 in 91 W/m2
17:36 85.3 °F 64.6 °F 29.87 in NW 1.0 mph 2.0 mph 50% 0.00 in 90 W/m2
17:42 85.4 °F 62.9 °F 29.87 in NNW 1.0 mph 2.0 mph 47% 0.00 in 86 W/m2
17:48 85.0 °F 61.3 °F 29.86 in NNW 3.0 mph 3.0 mph 45% 0.00 in 86 W/m2
17:54 84.9 °F 62.4 °F 29.86 in NW 2.0 mph 3.0 mph 47% 0.00 in 83 W/m2
18:00 84.7 °F 63.4 °F 29.86 in NNW 2.0 mph 2.0 mph 49% 0.00 in 79 W/m2
18:02 84.6 °F 63.3 °F 29.86 in NNW 2.0 mph 2.0 mph 49% 0.00 in 79 W/m2
18:08 84.4 °F 62.0 °F 29.86 in NW 2.0 mph 2.0 mph 47% 0.00 in 77 W/m2
18:14 84.2 °F 63.0 °F 29.86 in NNW 2.0 mph 3.0 mph 49% 0.00 in 74 W/m2
18:20 84.1 °F 63.5 °F 29.86 in WNW 2.0 mph 2.0 mph 50% 0.00 in 70 W/m2
18:26 83.9 °F 61.5 °F 29.86 in NW 2.0 mph 2.0 mph 47% 0.00 in 72 W/m2
18:32 83.6 °F 61.8 °F 29.86 in NNW 2.0 mph 2.0 mph 48% 0.00 in 70 W/m2
18:38 83.4 °F 61.7 °F 29.86 in NNW 2.0 mph 2.0 mph 48% 0.00 in 67 W/m2
18:44 83.3 °F 62.1 °F 29.86 in NNW 1.0 mph 2.0 mph 49% 0.00 in 70 W/m2
18:50 83.2 °F 62.6 °F 29.86 in NNW 1.0 mph 1.0 mph 50% 0.00 in 81 W/m2
18:56 83.0 °F 62.4 °F 29.86 in NNW 1.0 mph 4.0 mph 50% 0.00 in 54 W/m2
19:02 82.6 °F 62.1 °F 29.86 in NNW 1.0 mph 1.0 mph 50% 0.00 in 35 W/m2
19:08 82.1 °F 62.2 °F 29.86 in NNW 1.0 mph 1.0 mph 51% 0.00 in 42 W/m2
19:14 81.8 °F 61.9 °F 29.86 in NNW 1.0 mph 1.0 mph 51% 0.00 in 40 W/m2
19:20 81.5 °F 61.6 °F 29.86 in NNW 1.0 mph 1.0 mph 51% 0.00 in 40 W/m2
19:26 81.3 °F 61.4 °F 29.86 in Calm   1.0 mph 51% 0.00 in 42 W/m2
19:32 81.0 °F 61.7 °F 29.86 in Calm     52% 0.00 in 40 W/m2
19:38 80.7 °F 62.0 °F 29.86 in Calm     53% 0.00 in 37 W/m2
19:44 80.5 °F 61.3 °F 29.86 in Calm     52% 0.00 in 35 W/m2
19:50 80.3 °F 62.1 °F 29.86 in Calm     54% 0.00 in 37 W/m2
19:56 80.2 °F 63.1 °F 29.86 in Calm     56% 0.00 in 28 W/m2
20:02 79.6 °F 64.5 °F 29.86 in Calm     60% 0.00 in 23 W/m2
20:08 78.8 °F 65.1 °F 29.86 in Calm     63% 0.00 in 23 W/m2
20:14 78.0 °F 65.7 °F 29.86 in Calm     66% 0.00 in 21 W/m2
20:20 77.3 °F 65.9 °F 29.86 in Calm     68% 0.00 in 18 W/m2
20:26 76.6 °F 65.7 °F 29.86 in Calm     69% 0.00 in 16 W/m2
20:32 75.9 °F 65.4 °F 29.86 in Calm     70% 0.00 in 11 W/m2
20:44 75.1 °F 65.1 °F 29.86 in Calm     71% 0.00 in 0 W/m2
20:50 74.7 °F 64.7 °F 29.86 in Calm     71% 0.00 in 0 W/m2
20:56 74.3 °F 64.3 °F 29.86 in Calm     71% 0.00 in 0 W/m2
21:02 73.9 °F 63.9 °F 29.86 in Calm     71% 0.00 in 0 W/m2
21:08 73.6 °F 64.4 °F 29.86 in Calm     73% 0.00 in 0 W/m2
21:14 73.3 °F 63.7 °F 29.86 in Calm     72% 0.00 in 0 W/m2
21:20 72.9 °F 63.7 °F 29.86 in Calm     73% 0.00 in 0 W/m2
21:26 72.6 °F 63.4 °F 29.86 in Calm     73% 0.00 in 0 W/m2
21:32 72.3 °F 63.5 °F 29.86 in Calm     74% 0.00 in 0 W/m2
21:38 72.0 °F 63.3 °F 29.86 in Calm     74% 0.00 in 0 W/m2
21:44 71.7 °F 63.0 °F 29.86 in Calm     74% 0.00 in 0 W/m2
21:50 71.5 °F 63.2 °F 29.86 in Calm     75% 0.00 in 0 W/m2
21:56 71.4 °F 63.4 °F 29.86 in Calm     76% 0.00 in 0 W/m2
22:02 71.2 °F 63.6 °F 29.86 in Calm     77% 0.00 in 0 W/m2
22:06 71.1 °F 63.5 °F 29.86 in Calm     77% 0.00 in 0 W/m2
22:12 71.0 °F 63.4 °F 29.86 in Calm     77% 0.00 in 0 W/m2
22:18 71.0 °F 63.4 °F 29.86 in Calm     77% 0.00 in 0 W/m2
22:24 70.9 °F 63.3 °F 29.86 in Calm     77% 0.00 in 0 W/m2
22:30 70.9 °F 63.0 °F 29.86 in Calm     76% 0.00 in 0 W/m2
22:36 71.1 °F 62.8 °F 29.86 in Calm     75% 0.00 in 0 W/m2
22:42 71.4 °F 63.8 °F 29.86 in Calm     77% 0.00 in 0 W/m2
22:48 71.4 °F 63.8 °F 29.86 in Calm     77% 0.00 in 0 W/m2
22:54 71.2 °F 63.6 °F 29.86 in Calm     77% 0.00 in 0 W/m2
23:00 71.1 °F 63.9 °F 29.86 in Calm     78% 0.00 in 0 W/m2
23:06 70.8 °F 63.2 °F 29.86 in Calm     77% 0.00 in 0 W/m2
23:12 70.7 °F 63.9 °F 29.86 in Calm     79% 0.00 in 0 W/m2
23:18 70.5 °F 63.3 °F 29.86 in Calm     78% 0.00 in 0 W/m2
23:24 70.4 °F 63.2 °F 29.86 in Calm     78% 0.00 in 0 W/m2
23:30 70.2 °F 63.0 °F 29.86 in Calm     78% 0.00 in 0 W/m2
23:36 70.0 °F 63.2 °F 29.86 in Calm     79% 0.00 in 0 W/m2
23:42 69.9 °F 63.1 °F 29.86 in Calm     79% 0.00 in 0 W/m2
23:48 69.8 °F 63.0 °F 29.86 in Calm     79% 0.00 in 0 W/m2
23:54 69.9 °F 63.1 °F 29.86 in Calm     79% 0.00 in 0 W/m2
Country Meadow, Clay, NY, USA
Compliments of Weather Underground - 2 mb